sensor_id;sensor_type;location;lat;lon;timestamp;temperature;humidity
19868;DHT22;10096;51.112;6.776;2023-12-20T00:02:29;9.10;1.00
19868;DHT22;10096;51.112;6.776;2023-12-20T00:04:58;9.10;1.00
19868;DHT22;10096;51.112;6.776;2023-12-20T00:07:25;9.10;1.00
19868;DHT22;10096;51.112;6.776;2023-12-20T00:09:52;8.90;99.90
19868;DHT22;10096;51.112;6.776;2023-12-20T00:12:41;8.80;99.90
19868;DHT22;10096;51.112;6.776;2023-12-20T00:15:09;8.90;99.90
19868;DHT22;10096;51.112;6.776;2023-12-20T00:17:38;9.10;99.90
19868;DHT22;10096;51.112;6.776;2023-12-20T00:20:06;8.80;76.80
19868;DHT22;10096;51.112;6.776;2023-12-20T00:22:34;8.80;25.80
19868;DHT22;10096;51.112;6.776;2023-12-20T00:25:01;8.70;1.00
19868;DHT22;10096;51.112;6.776;2023-12-20T00:27:28;8.90;1.00
19868;DHT22;10096;51.112;6.776;2023-12-20T00:29:55;8.70;1.00
19868;DHT22;10096;51.112;6.776;2023-12-20T00:32:23;8.70;1.00
19868;DHT22;10096;51.112;6.776;2023-12-20T00:34:51;8.70;1.00
19868;DHT22;10096;51.112;6.776;2023-12-20T00:37:18;8.80;1.00
19868;DHT22;10096;51.112;6.776;2023-12-20T00:39:46;8.70;1.00
19868;DHT22;10096;51.112;6.776;2023-12-20T00:42:13;8.70;1.00
19868;DHT22;10096;51.112;6.776;2023-12-20T00:44:40;8.80;1.00
19868;DHT22;10096;51.112;6.776;2023-12-20T00:47:07;8.70;1.00
19868;DHT22;10096;51.112;6.776;2023-12-20T00:49:38;8.70;1.00
19868;DHT22;10096;51.112;6.776;2023-12-20T00:52:05;8.60;1.00
19868;DHT22;10096;51.112;6.776;2023-12-20T00:54:32;8.60;1.00
19868;DHT22;10096;51.112;6.776;2023-12-20T00:57:01;8.50;1.00
19868;DHT22;10096;51.112;6.776;2023-12-20T00:59:28;8.40;1.00
19868;DHT22;10096;51.112;6.776;2023-12-20T01:01:56;8.30;10.10
19868;DHT22;10096;51.112;6.776;2023-12-20T01:04:23;8.30;14.60
19868;DHT22;10096;51.112;6.776;2023-12-20T01:06:52;8.30;40.50
19868;DHT22;10096;51.112;6.776;2023-12-20T01:09:19;8.50;35.50
19868;DHT22;10096;51.112;6.776;2023-12-20T01:11:48;8.50;38.10
19868;DHT22;10096;51.112;6.776;2023-12-20T01:14:16;8.40;1.00
19868;DHT22;10096;51.112;6.776;2023-12-20T01:16:44;8.50;1.00
19868;DHT22;10096;51.112;6.776;2023-12-20T01:19:11;8.30;1.00
19868;DHT22;10096;51.112;6.776;2023-12-20T01:21:39;8.20;1.00
19868;DHT22;10096;51.112;6.776;2023-12-20T01:24:07;8.30;1.00
19868;DHT22;10096;51.112;6.776;2023-12-20T01:26:33;8.00;1.00
19868;DHT22;10096;51.112;6.776;2023-12-20T01:29:03;7.90;17.80
19868;DHT22;10096;51.112;6.776;2023-12-20T01:31:30;7.90;66.50
19868;DHT22;10096;51.112;6.776;2023-12-20T01:33:59;8.00;9.60
19868;DHT22;10096;51.112;6.776;2023-12-20T01:36:26;8.10;1.00
19868;DHT22;10096;51.112;6.776;2023-12-20T01:38:53;8.00;1.00
19868;DHT22;10096;51.112;6.776;2023-12-20T01:41:21;8.00;1.00
19868;DHT22;10096;51.112;6.776;2023-12-20T01:43:48;8.00;1.00
19868;DHT22;10096;51.112;6.776;2023-12-20T01:46:14;8.00;1.00
19868;DHT22;10096;51.112;6.776;2023-12-20T01:48:41;8.00;1.00
19868;DHT22;10096;51.112;6.776;2023-12-20T01:51:09;8.00;1.00
19868;DHT22;10096;51.112;6.776;2023-12-20T01:53:39;8.00;99.90
19868;DHT22;10096;51.112;6.776;2023-12-20T01:56:07;8.10;99.90
19868;DHT22;10096;51.112;6.776;2023-12-20T01:58:42;7.80;99.90
19868;DHT22;10096;51.112;6.776;2023-12-20T02:01:10;7.70;99.90
19868;DHT22;10096;51.112;6.776;2023-12-20T02:03:37;7.60;99.90
19868;DHT22;10096;51.112;6.776;2023-12-20T02:06:07;7.50;1.00
19868;DHT22;10096;51.112;6.776;2023-12-20T02:08:34;7.40;1.00
19868;DHT22;10096;51.112;6.776;2023-12-20T02:11:10;7.40;1.00
19868;DHT22;10096;51.112;6.776;2023-12-20T02:13:37;7.30;1.00
19868;DHT22;10096;51.112;6.776;2023-12-20T02:16:04;7.20;1.00
19868;DHT22;10096;51.112;6.776;2023-12-20T02:18:33;7.20;1.00
19868;DHT22;10096;51.112;6.776;2023-12-20T02:21:04;7.10;1.00
19868;DHT22;10096;51.112;6.776;2023-12-20T02:23:32;7.10;1.00
19868;DHT22;10096;51.112;6.776;2023-12-20T02:25:59;7.00;1.00
19868;DHT22;10096;51.112;6.776;2023-12-20T02:28:26;6.90;1.00
19868;DHT22;10096;51.112;6.776;2023-12-20T02:30:53;6.90;1.00
19868;DHT22;10096;51.112;6.776;2023-12-20T02:33:20;6.80;1.00
19868;DHT22;10096;51.112;6.776;2023-12-20T02:35:47;6.90;1.00
19868;DHT22;10096;51.112;6.776;2023-12-20T02:38:14;7.00;1.00
19868;DHT22;10096;51.112;6.776;2023-12-20T02:40:43;7.10;1.00
19868;DHT22;10096;51.112;6.776;2023-12-20T02:43:10;7.20;1.00
19868;DHT22;10096;51.112;6.776;2023-12-20T02:45:39;7.30;1.00
19868;DHT22;10096;51.112;6.776;2023-12-20T02:48:06;7.20;1.00
19868;DHT22;10096;51.112;6.776;2023-12-20T02:50:33;7.20;1.00
19868;DHT22;10096;51.112;6.776;2023-12-20T02:53:00;7.20;1.00
19868;DHT22;10096;51.112;6.776;2023-12-20T02:55:27;7.20;1.00
19868;DHT22;10096;51.112;6.776;2023-12-20T02:57:55;7.30;1.00
19868;DHT22;10096;51.112;6.776;2023-12-20T03:00:23;7.30;1.00
19868;DHT22;10096;51.112;6.776;2023-12-20T03:02:50;7.30;99.90
19868;DHT22;10096;51.112;6.776;2023-12-20T03:05:17;7.30;99.90
19868;DHT22;10096;51.112;6.776;2023-12-20T03:07:43;7.30;99.90
19868;DHT22;10096;51.112;6.776;2023-12-20T03:10:11;7.40;99.90
19868;DHT22;10096;51.112;6.776;2023-12-20T03:12:38;7.30;99.90
19868;DHT22;10096;51.112;6.776;2023-12-20T03:15:08;7.30;99.90
19868;DHT22;10096;51.112;6.776;2023-12-20T03:17:35;7.30;99.90
19868;DHT22;10096;51.112;6.776;2023-12-20T03:20:03;7.20;99.90
19868;DHT22;10096;51.112;6.776;2023-12-20T03:22:29;7.30;99.90
19868;DHT22;10096;51.112;6.776;2023-12-20T03:24:56;7.20;99.90
19868;DHT22;10096;51.112;6.776;2023-12-20T03:27:23;7.10;99.90
19868;DHT22;10096;51.112;6.776;2023-12-20T03:29:50;7.00;99.90
19868;DHT22;10096;51.112;6.776;2023-12-20T03:32:19;6.90;99.90
19868;DHT22;10096;51.112;6.776;2023-12-20T03:34:46;6.90;99.90
19868;DHT22;10096;51.112;6.776;2023-12-20T03:37:13;7.00;99.90
19868;DHT22;10096;51.112;6.776;2023-12-20T03:39:41;6.80;99.90
19868;DHT22;10096;51.112;6.776;2023-12-20T03:42:08;6.80;99.90
19868;DHT22;10096;51.112;6.776;2023-12-20T03:44:38;6.70;1.00
19868;DHT22;10096;51.112;6.776;2023-12-20T03:47:05;7.00;99.90
19868;DHT22;10096;51.112;6.776;2023-12-20T03:49:34;6.80;1.00
19868;DHT22;10096;51.112;6.776;2023-12-20T03:52:03;6.70;1.00
19868;DHT22;10096;51.112;6.776;2023-12-20T03:54:31;6.70;1.00
19868;DHT22;10096;51.112;6.776;2023-12-20T03:56:58;6.60;1.00
19868;DHT22;10096;51.112;6.776;2023-12-20T03:59:25;6.60;1.00
19868;DHT22;10096;51.112;6.776;2023-12-20T04:01:53;6.80;1.00
19868;DHT22;10096;51.112;6.776;2023-12-20T04:04:20;7.00;1.00
19868;DHT22;10096;51.112;6.776;2023-12-20T04:06:49;6.80;99.90
19868;DHT22;10096;51.112;6.776;2023-12-20T04:09:16;6.90;1.00
19868;DHT22;10096;51.112;6.776;2023-12-20T04:11:48;7.10;99.90
19868;DHT22;10096;51.112;6.776;2023-12-20T04:14:15;7.10;99.90
19868;DHT22;10096;51.112;6.776;2023-12-20T04:16:43;7.10;99.90
19868;DHT22;10096;51.112;6.776;2023-12-20T04:19:09;6.90;99.90
19868;DHT22;10096;51.112;6.776;2023-12-20T04:21:36;7.00;99.90
19868;DHT22;10096;51.112;6.776;2023-12-20T04:24:05;7.10;99.90
19868;DHT22;10096;51.112;6.776;2023-12-20T04:26:32;7.20;99.90
19868;DHT22;10096;51.112;6.776;2023-12-20T04:28:59;7.10;99.90
19868;DHT22;10096;51.112;6.776;2023-12-20T04:31:31;7.10;99.90
19868;DHT22;10096;51.112;6.776;2023-12-20T04:33:58;7.10;99.90
19868;DHT22;10096;51.112;6.776;2023-12-20T04:36:25;7.10;99.90
19868;DHT22;10096;51.112;6.776;2023-12-20T04:38:52;7.20;99.90
19868;DHT22;10096;51.112;6.776;2023-12-20T04:41:21;7.10;99.90
19868;DHT22;10096;51.112;6.776;2023-12-20T04:43:48;7.00;99.90
19868;DHT22;10096;51.112;6.776;2023-12-20T04:46:19;7.00;99.90
19868;DHT22;10096;51.112;6.776;2023-12-20T04:48:46;6.90;99.90
19868;DHT22;10096;51.112;6.776;2023-12-20T04:51:13;6.80;99.90
19868;DHT22;10096;51.112;6.776;2023-12-20T04:53:42;6.90;99.90
19868;DHT22;10096;51.112;6.776;2023-12-20T04:56:09;6.80;99.90
19868;DHT22;10096;51.112;6.776;2023-12-20T04:58:39;7.10;99.90
19868;DHT22;10096;51.112;6.776;2023-12-20T05:01:06;6.90;99.90
19868;DHT22;10096;51.112;6.776;2023-12-20T05:03:36;6.90;99.90
19868;DHT22;10096;51.112;6.776;2023-12-20T05:06:06;6.90;99.90
19868;DHT22;10096;51.112;6.776;2023-12-20T05:08:34;6.70;99.90
19868;DHT22;10096;51.112;6.776;2023-12-20T05:11:01;6.60;99.90
19868;DHT22;10096;51.112;6.776;2023-12-20T05:13:28;6.60;99.90
19868;DHT22;10096;51.112;6.776;2023-12-20T05:16:00;6.50;99.90
19868;DHT22;10096;51.112;6.776;2023-12-20T05:18:28;6.60;99.90
19868;DHT22;10096;51.112;6.776;2023-12-20T05:21:02;6.60;99.90
19868;DHT22;10096;51.112;6.776;2023-12-20T05:23:31;6.60;99.90
19868;DHT22;10096;51.112;6.776;2023-12-20T05:25:58;6.60;99.90
19868;DHT22;10096;51.112;6.776;2023-12-20T05:28:25;6.50;99.90
19868;DHT22;10096;51.112;6.776;2023-12-20T05:30:52;6.60;99.90
19868;DHT22;10096;51.112;6.776;2023-12-20T05:33:21;6.60;99.90
19868;DHT22;10096;51.112;6.776;2023-12-20T05:35:48;6.80;99.90
19868;DHT22;10096;51.112;6.776;2023-12-20T05:38:15;6.60;99.90
19868;DHT22;10096;51.112;6.776;2023-12-20T05:40:44;6.90;99.90
19868;DHT22;10096;51.112;6.776;2023-12-20T05:43:11;6.70;99.90
19868;DHT22;10096;51.112;6.776;2023-12-20T05:45:38;6.80;99.90
19868;DHT22;10096;51.112;6.776;2023-12-20T05:48:07;6.70;99.90
19868;DHT22;10096;51.112;6.776;2023-12-20T05:50:36;6.90;99.90
19868;DHT22;10096;51.112;6.776;2023-12-20T05:53:05;7.00;99.90
19868;DHT22;10096;51.112;6.776;2023-12-20T05:55:35;6.90;99.90
19868;DHT22;10096;51.112;6.776;2023-12-20T05:58:01;7.00;99.90
19868;DHT22;10096;51.112;6.776;2023-12-20T06:00:28;7.00;99.90
19868;DHT22;10096;51.112;6.776;2023-12-20T06:02:56;6.90;99.90
19868;DHT22;10096;51.112;6.776;2023-12-20T06:05:23;7.10;99.90
19868;DHT22;10096;51.112;6.776;2023-12-20T06:07:52;7.10;99.90
19868;DHT22;10096;51.112;6.776;2023-12-20T06:10:20;7.10;99.90
19868;DHT22;10096;51.112;6.776;2023-12-20T06:12:50;7.10;99.90
19868;DHT22;10096;51.112;6.776;2023-12-20T06:15:16;7.10;99.90
19868;DHT22;10096;51.112;6.776;2023-12-20T06:17:43;7.20;99.90
19868;DHT22;10096;51.112;6.776;2023-12-20T06:20:12;7.20;99.90
19868;DHT22;10096;51.112;6.776;2023-12-20T06:22:40;7.30;99.90
19868;DHT22;10096;51.112;6.776;2023-12-20T06:25:13;7.30;95.30
19868;DHT22;10096;51.112;6.776;2023-12-20T06:27:40;7.30;61.70
19868;DHT22;10096;51.112;6.776;2023-12-20T06:30:07;7.20;52.50
19868;DHT22;10096;51.112;6.776;2023-12-20T06:32:36;7.10;24.60
19868;DHT22;10096;51.112;6.776;2023-12-20T06:35:04;7.30;81.90
19868;DHT22;10096;51.112;6.776;2023-12-20T06:37:31;7.30;29.10
19868;DHT22;10096;51.112;6.776;2023-12-20T06:39:58;7.30;59.90
19868;DHT22;10096;51.112;6.776;2023-12-20T06:42:27;7.30;64.70
19868;DHT22;10096;51.112;6.776;2023-12-20T06:44:53;7.40;31.70
19868;DHT22;10096;51.112;6.776;2023-12-20T06:47:22;7.40;1.00
19868;DHT22;10096;51.112;6.776;2023-12-20T06:49:49;7.40;1.00
19868;DHT22;10096;51.112;6.776;2023-12-20T06:52:17;7.50;1.00
19868;DHT22;10096;51.112;6.776;2023-12-20T06:54:45;7.50;1.00
19868;DHT22;10096;51.112;6.776;2023-12-20T06:57:12;7.30;1.00
19868;DHT22;10096;51.112;6.776;2023-12-20T06:59:44;7.40;1.00
19868;DHT22;10096;51.112;6.776;2023-12-20T07:02:12;7.40;1.00
19868;DHT22;10096;51.112;6.776;2023-12-20T07:04:41;7.40;1.00
19868;DHT22;10096;51.112;6.776;2023-12-20T07:07:09;7.50;1.00
19868;DHT22;10096;51.112;6.776;2023-12-20T07:09:35;7.60;1.00
19868;DHT22;10096;51.112;6.776;2023-12-20T07:12:04;7.40;1.00
19868;DHT22;10096;51.112;6.776;2023-12-20T07:14:33;7.50;1.00
19868;DHT22;10096;51.112;6.776;2023-12-20T07:17:08;7.40;1.00
19868;DHT22;10096;51.112;6.776;2023-12-20T07:19:45;7.60;1.00
19868;DHT22;10096;51.112;6.776;2023-12-20T07:22:12;7.50;1.00
19868;DHT22;10096;51.112;6.776;2023-12-20T07:24:39;7.50;1.00
19868;DHT22;10096;51.112;6.776;2023-12-20T07:27:14;7.50;1.00
19868;DHT22;10096;51.112;6.776;2023-12-20T07:29:42;8.00;1.00
19868;DHT22;10096;51.112;6.776;2023-12-20T07:32:10;7.60;1.00
19868;DHT22;10096;51.112;6.776;2023-12-20T07:34:37;7.70;1.00
19868;DHT22;10096;51.112;6.776;2023-12-20T07:37:06;7.70;1.00
19868;DHT22;10096;51.112;6.776;2023-12-20T07:39:39;7.60;1.00
19868;DHT22;10096;51.112;6.776;2023-12-20T07:42:10;7.60;1.00
19868;DHT22;10096;51.112;6.776;2023-12-20T07:44:39;7.60;1.00
19868;DHT22;10096;51.112;6.776;2023-12-20T07:47:11;7.90;1.00
19868;DHT22;10096;51.112;6.776;2023-12-20T07:49:45;7.70;1.00
19868;DHT22;10096;51.112;6.776;2023-12-20T07:52:17;7.60;1.00
19868;DHT22;10096;51.112;6.776;2023-12-20T07:54:45;7.80;1.00
19868;DHT22;10096;51.112;6.776;2023-12-20T07:57:12;7.70;1.00
19868;DHT22;10096;51.112;6.776;2023-12-20T07:59:47;7.60;1.00
19868;DHT22;10096;51.112;6.776;2023-12-20T08:02:15;7.60;1.00
19868;DHT22;10096;51.112;6.776;2023-12-20T08:04:43;7.60;1.00
19868;DHT22;10096;51.112;6.776;2023-12-20T08:07:09;7.60;1.00
19868;DHT22;10096;51.112;6.776;2023-12-20T08:09:36;7.70;1.00
19868;DHT22;10096;51.112;6.776;2023-12-20T08:12:04;7.30;1.00
19868;DHT22;10096;51.112;6.776;2023-12-20T08:14:33;7.70;99.90
19868;DHT22;10096;51.112;6.776;2023-12-20T08:17:02;7.80;99.90
19868;DHT22;10096;51.112;6.776;2023-12-20T08:19:30;7.70;99.90
19868;DHT22;10096;51.112;6.776;2023-12-20T08:21:58;7.70;99.90
19868;DHT22;10096;51.112;6.776;2023-12-20T08:24:25;7.70;59.00
19868;DHT22;10096;51.112;6.776;2023-12-20T08:26:52;7.60;1.00
19868;DHT22;10096;51.112;6.776;2023-12-20T08:29:22;7.80;1.00
19868;DHT22;10096;51.112;6.776;2023-12-20T08:31:54;7.70;1.00
19868;DHT22;10096;51.112;6.776;2023-12-20T08:34:21;7.60;1.00
19868;DHT22;10096;51.112;6.776;2023-12-20T08:36:53;7.70;1.00
19868;DHT22;10096;51.112;6.776;2023-12-20T08:39:22;7.80;1.00
19868;DHT22;10096;51.112;6.776;2023-12-20T08:41:49;7.80;1.00
19868;DHT22;10096;51.112;6.776;2023-12-20T08:44:17;7.70;1.00
19868;DHT22;10096;51.112;6.776;2023-12-20T08:46:44;7.50;1.00
19868;DHT22;10096;51.112;6.776;2023-12-20T08:49:14;8.00;1.00
19868;DHT22;10096;51.112;6.776;2023-12-20T08:51:44;7.80;1.00
19868;DHT22;10096;51.112;6.776;2023-12-20T08:54:13;7.90;1.00
19868;DHT22;10096;51.112;6.776;2023-12-20T08:56:40;8.00;1.00
19868;DHT22;10096;51.112;6.776;2023-12-20T08:59:11;7.80;1.00
19868;DHT22;10096;51.112;6.776;2023-12-20T09:01:43;7.90;1.00
19868;DHT22;10096;51.112;6.776;2023-12-20T09:04:13;7.90;1.00
19868;DHT22;10096;51.112;6.776;2023-12-20T09:06:40;8.00;1.00
19868;DHT22;10096;51.112;6.776;2023-12-20T09:09:07;8.10;1.00
19868;DHT22;10096;51.112;6.776;2023-12-20T09:11:37;7.90;1.00
19868;DHT22;10096;51.112;6.776;2023-12-20T09:14:07;7.90;1.00
19868;DHT22;10096;51.112;6.776;2023-12-20T09:16:34;8.00;1.00
19868;DHT22;10096;51.112;6.776;2023-12-20T09:19:08;8.00;1.00
19868;DHT22;10096;51.112;6.776;2023-12-20T09:21:36;7.90;1.00
19868;DHT22;10096;51.112;6.776;2023-12-20T09:24:04;7.90;1.00
19868;DHT22;10096;51.112;6.776;2023-12-20T09:26:40;8.00;1.00
19868;DHT22;10096;51.112;6.776;2023-12-20T09:29:10;8.10;1.00
19868;DHT22;10096;51.112;6.776;2023-12-20T09:31:40;8.20;1.00
19868;DHT22;10096;51.112;6.776;2023-12-20T09:34:09;8.00;1.00
19868;DHT22;10096;51.112;6.776;2023-12-20T09:36:37;8.00;1.00
19868;DHT22;10096;51.112;6.776;2023-12-20T09:39:08;8.00;1.00
19868;DHT22;10096;51.112;6.776;2023-12-20T09:41:40;8.00;1.00
19868;DHT22;10096;51.112;6.776;2023-12-20T09:44:14;8.00;1.00
19868;DHT22;10096;51.112;6.776;2023-12-20T09:46:44;8.00;1.00
19868;DHT22;10096;51.112;6.776;2023-12-20T09:49:12;8.00;1.00
19868;DHT22;10096;51.112;6.776;2023-12-20T09:51:40;8.00;1.00
19868;DHT22;10096;51.112;6.776;2023-12-20T09:54:09;8.20;1.00
19868;DHT22;10096;51.112;6.776;2023-12-20T09:56:37;8.10;1.00
19868;DHT22;10096;51.112;6.776;2023-12-20T09:59:07;8.10;1.00
19868;DHT22;10096;51.112;6.776;2023-12-20T10:01:34;8.00;1.00
19868;DHT22;10096;51.112;6.776;2023-12-20T10:04:06;8.20;1.00
19868;DHT22;10096;51.112;6.776;2023-12-20T10:06:35;8.20;1.00
19868;DHT22;10096;51.112;6.776;2023-12-20T10:09:03;8.30;1.00
19868;DHT22;10096;51.112;6.776;2023-12-20T10:11:31;8.40;1.00
19868;DHT22;10096;51.112;6.776;2023-12-20T10:14:01;8.40;1.00
19868;DHT22;10096;51.112;6.776;2023-12-20T10:16:33;8.30;1.00
19868;DHT22;10096;51.112;6.776;2023-12-20T10:19:02;8.30;1.00
19868;DHT22;10096;51.112;6.776;2023-12-20T10:21:30;8.30;1.00
19868;DHT22;10096;51.112;6.776;2023-12-20T10:23:59;8.10;1.00
19868;DHT22;10096;51.112;6.776;2023-12-20T10:26:27;8.10;1.00
19868;DHT22;10096;51.112;6.776;2023-12-20T10:29:00;8.20;1.00
19868;DHT22;10096;51.112;6.776;2023-12-20T10:31:28;8.20;1.00
19868;DHT22;10096;51.112;6.776;2023-12-20T10:33:57;8.20;1.00
19868;DHT22;10096;51.112;6.776;2023-12-20T10:36:26;8.30;1.00
19868;DHT22;10096;51.112;6.776;2023-12-20T10:38:54;8.50;1.00
19868;DHT22;10096;51.112;6.776;2023-12-20T10:41:25;8.40;1.00
19868;DHT22;10096;51.112;6.776;2023-12-20T10:43:55;8.30;1.00
19868;DHT22;10096;51.112;6.776;2023-12-20T10:46:27;8.30;1.00
19868;DHT22;10096;51.112;6.776;2023-12-20T10:49:02;8.30;1.00
19868;DHT22;10096;51.112;6.776;2023-12-20T10:51:30;8.30;1.00
19868;DHT22;10096;51.112;6.776;2023-12-20T10:53:58;8.50;1.00
19868;DHT22;10096;51.112;6.776;2023-12-20T10:56:26;8.50;1.00
19868;DHT22;10096;51.112;6.776;2023-12-20T10:59:02;8.30;1.00
19868;DHT22;10096;51.112;6.776;2023-12-20T11:01:31;8.30;1.00
19868;DHT22;10096;51.112;6.776;2023-12-20T11:03:59;8.40;1.00
19868;DHT22;10096;51.112;6.776;2023-12-20T11:06:35;8.40;1.00
19868;DHT22;10096;51.112;6.776;2023-12-20T11:09:12;8.40;1.00
19868;DHT22;10096;51.112;6.776;2023-12-20T11:11:56;8.40;1.00
19868;DHT22;10096;51.112;6.776;2023-12-20T11:14:28;8.50;1.00
19868;DHT22;10096;51.112;6.776;2023-12-20T11:17:06;8.50;1.00
19868;DHT22;10096;51.112;6.776;2023-12-20T11:19:38;8.60;1.00
19868;DHT22;10096;51.112;6.776;2023-12-20T11:22:14;8.70;1.00
19868;DHT22;10096;51.112;6.776;2023-12-20T11:24:44;8.70;1.00
19868;DHT22;10096;51.112;6.776;2023-12-20T11:27:16;8.80;1.00
19868;DHT22;10096;51.112;6.776;2023-12-20T11:29:52;8.60;1.00
19868;DHT22;10096;51.112;6.776;2023-12-20T11:32:28;8.90;1.00
19868;DHT22;10096;51.112;6.776;2023-12-20T11:34:56;8.60;1.00
19868;DHT22;10096;51.112;6.776;2023-12-20T11:37:41;8.70;1.00
19868;DHT22;10096;51.112;6.776;2023-12-20T11:40:13;8.50;1.00
19868;DHT22;10096;51.112;6.776;2023-12-20T11:42:42;8.50;1.00
19868;DHT22;10096;51.112;6.776;2023-12-20T11:45:10;8.50;1.00
19868;DHT22;10096;51.112;6.776;2023-12-20T11:47:49;8.60;1.00
19868;DHT22;10096;51.112;6.776;2023-12-20T11:50:17;8.50;1.00
19868;DHT22;10096;51.112;6.776;2023-12-20T11:52:45;8.60;1.00
19868;DHT22;10096;51.112;6.776;2023-12-20T11:55:20;8.50;1.00
19868;DHT22;10096;51.112;6.776;2023-12-20T11:57:55;8.50;1.00
19868;DHT22;10096;51.112;6.776;2023-12-20T12:00:29;8.40;1.00
19868;DHT22;10096;51.112;6.776;2023-12-20T12:02:57;8.70;1.00
19868;DHT22;10096;51.112;6.776;2023-12-20T12:05:24;8.50;1.00
19868;DHT22;10096;51.112;6.776;2023-12-20T12:07:53;8.60;1.00
19868;DHT22;10096;51.112;6.776;2023-12-20T12:10:20;8.80;1.00
19868;DHT22;10096;51.112;6.776;2023-12-20T12:12:47;8.80;1.00
19868;DHT22;10096;51.112;6.776;2023-12-20T12:15:14;8.90;1.00
19868;DHT22;10096;51.112;6.776;2023-12-20T12:17:42;8.70;1.00
19868;DHT22;10096;51.112;6.776;2023-12-20T12:20:19;8.80;1.00
19868;DHT22;10096;51.112;6.776;2023-12-20T12:23:06;8.90;1.00
19868;DHT22;10096;51.112;6.776;2023-12-20T12:25:35;8.90;1.00
19868;DHT22;10096;51.112;6.776;2023-12-20T12:28:02;9.00;1.00
19868;DHT22;10096;51.112;6.776;2023-12-20T12:30:35;8.90;1.00
19868;DHT22;10096;51.112;6.776;2023-12-20T12:33:03;8.90;1.00
19868;DHT22;10096;51.112;6.776;2023-12-20T12:35:30;8.60;1.00
19868;DHT22;10096;51.112;6.776;2023-12-20T12:37:59;9.00;1.00
19868;DHT22;10096;51.112;6.776;2023-12-20T12:40:27;8.90;1.00
19868;DHT22;10096;51.112;6.776;2023-12-20T12:42:55;8.80;1.00
19868;DHT22;10096;51.112;6.776;2023-12-20T12:45:23;8.70;1.00
19868;DHT22;10096;51.112;6.776;2023-12-20T12:47:51;8.70;1.00
19868;DHT22;10096;51.112;6.776;2023-12-20T12:50:21;8.70;1.00
19868;DHT22;10096;51.112;6.776;2023-12-20T12:52:49;8.60;1.00
19868;DHT22;10096;51.112;6.776;2023-12-20T12:55:18;8.60;1.00
19868;DHT22;10096;51.112;6.776;2023-12-20T12:58:02;8.90;1.00
19868;DHT22;10096;51.112;6.776;2023-12-20T13:00:35;8.80;1.00
19868;DHT22;10096;51.112;6.776;2023-12-20T13:03:04;8.70;1.00
19868;DHT22;10096;51.112;6.776;2023-12-20T13:05:32;9.00;1.00
19868;DHT22;10096;51.112;6.776;2023-12-20T13:07:59;9.00;1.00
19868;DHT22;10096;51.112;6.776;2023-12-20T13:10:26;9.20;1.00
19868;DHT22;10096;51.112;6.776;2023-12-20T13:12:54;9.20;1.00
19868;DHT22;10096;51.112;6.776;2023-12-20T13:15:23;9.10;1.00
19868;DHT22;10096;51.112;6.776;2023-12-20T13:17:52;9.00;1.00
19868;DHT22;10096;51.112;6.776;2023-12-20T13:20:30;9.00;1.00
19868;DHT22;10096;51.112;6.776;2023-12-20T13:22:59;9.10;1.00
19868;DHT22;10096;51.112;6.776;2023-12-20T13:25:26;9.20;1.00
19868;DHT22;10096;51.112;6.776;2023-12-20T13:27:53;9.00;1.00
19868;DHT22;10096;51.112;6.776;2023-12-20T13:30:33;9.10;1.00
19868;DHT22;10096;51.112;6.776;2023-12-20T13:33:01;9.10;1.00
19868;DHT22;10096;51.112;6.776;2023-12-20T13:35:28;9.20;1.00
19868;DHT22;10096;51.112;6.776;2023-12-20T13:39:40;9.10;1.00
19868;DHT22;10096;51.112;6.776;2023-12-20T13:41:25;9.40;1.00
19868;DHT22;10096;51.112;6.776;2023-12-20T13:44:02;9.30;1.00
19868;DHT22;10096;51.112;6.776;2023-12-20T13:46:51;8.80;1.00
19868;DHT22;10096;51.112;6.776;2023-12-20T13:49:28;8.90;1.00
19868;DHT22;10096;51.112;6.776;2023-12-20T13:51:58;8.80;1.00
19868;DHT22;10096;51.112;6.776;2023-12-20T13:54:25;8.90;1.00
19868;DHT22;10096;51.112;6.776;2023-12-20T13:56:52;8.90;1.00
19868;DHT22;10096;51.112;6.776;2023-12-20T13:59:20;8.70;1.00
19868;DHT22;10096;51.112;6.776;2023-12-20T14:01:49;8.90;1.00
19868;DHT22;10096;51.112;6.776;2023-12-20T14:04:18;8.80;1.00
19868;DHT22;10096;51.112;6.776;2023-12-20T14:06:46;8.80;1.00
19868;DHT22;10096;51.112;6.776;2023-12-20T14:09:13;8.70;1.00
19868;DHT22;10096;51.112;6.776;2023-12-20T14:11:41;8.60;1.00
19868;DHT22;10096;51.112;6.776;2023-12-20T14:14:10;8.80;1.00
19868;DHT22;10096;51.112;6.776;2023-12-20T14:16:40;8.90;1.00
19868;DHT22;10096;51.112;6.776;2023-12-20T14:19:30;8.90;1.00
19868;DHT22;10096;51.112;6.776;2023-12-20T14:22:00;8.90;1.00
19868;DHT22;10096;51.112;6.776;2023-12-20T14:24:29;8.80;1.00
19868;DHT22;10096;51.112;6.776;2023-12-20T14:27:00;8.90;1.00
19868;DHT22;10096;51.112;6.776;2023-12-20T14:29:28;8.80;1.00
19868;DHT22;10096;51.112;6.776;2023-12-20T14:31:57;8.80;1.00
19868;DHT22;10096;51.112;6.776;2023-12-20T14:34:50;8.80;1.00
19868;DHT22;10096;51.112;6.776;2023-12-20T14:37:20;8.90;1.00
19868;DHT22;10096;51.112;6.776;2023-12-20T14:39:50;8.80;1.00
19868;DHT22;10096;51.112;6.776;2023-12-20T14:42:26;8.70;1.00
19868;DHT22;10096;51.112;6.776;2023-12-20T14:44:53;8.90;1.00
19868;DHT22;10096;51.112;6.776;2023-12-20T14:47:20;8.90;1.00
19868;DHT22;10096;51.112;6.776;2023-12-20T14:49:50;8.80;1.00
19868;DHT22;10096;51.112;6.776;2023-12-20T14:52:17;9.10;1.00
19868;DHT22;10096;51.112;6.776;2023-12-20T14:54:53;8.80;1.00
19868;DHT22;10096;51.112;6.776;2023-12-20T14:57:20;8.80;1.00
19868;DHT22;10096;51.112;6.776;2023-12-20T14:59:47;9.00;1.00
19868;DHT22;10096;51.112;6.776;2023-12-20T15:02:14;9.00;1.00
19868;DHT22;10096;51.112;6.776;2023-12-20T15:04:41;8.90;1.00
19868;DHT22;10096;51.112;6.776;2023-12-20T15:07:10;8.90;1.00
19868;DHT22;10096;51.112;6.776;2023-12-20T15:09:37;8.90;1.00
19868;DHT22;10096;51.112;6.776;2023-12-20T15:12:08;8.80;1.00
19868;DHT22;10096;51.112;6.776;2023-12-20T15:14:36;9.00;1.00
19868;DHT22;10096;51.112;6.776;2023-12-20T15:17:06;9.00;1.00
19868;DHT22;10096;51.112;6.776;2023-12-20T15:19:36;9.00;1.00
19868;DHT22;10096;51.112;6.776;2023-12-20T15:22:03;8.90;1.00
19868;DHT22;10096;51.112;6.776;2023-12-20T15:24:36;8.80;1.00
19868;DHT22;10096;51.112;6.776;2023-12-20T15:27:06;8.90;1.00
19868;DHT22;10096;51.112;6.776;2023-12-20T15:29:33;9.00;1.00
19868;DHT22;10096;51.112;6.776;2023-12-20T15:32:04;8.80;1.00
19868;DHT22;10096;51.112;6.776;2023-12-20T15:34:32;8.50;1.00
19868;DHT22;10096;51.112;6.776;2023-12-20T15:37:03;8.90;1.00
19868;DHT22;10096;51.112;6.776;2023-12-20T15:39:47;8.90;1.00
19868;DHT22;10096;51.112;6.776;2023-12-20T15:42:13;8.90;1.00
19868;DHT22;10096;51.112;6.776;2023-12-20T15:44:41;8.80;1.00
19868;DHT22;10096;51.112;6.776;2023-12-20T15:47:08;8.60;1.00
19868;DHT22;10096;51.112;6.776;2023-12-20T15:49:35;8.80;1.00
19868;DHT22;10096;51.112;6.776;2023-12-20T15:52:07;8.70;1.00
19868;DHT22;10096;51.112;6.776;2023-12-20T15:54:37;8.80;1.00
19868;DHT22;10096;51.112;6.776;2023-12-20T15:57:07;9.00;1.00
19868;DHT22;10096;51.112;6.776;2023-12-20T15:59:35;8.60;1.00
19868;DHT22;10096;51.112;6.776;2023-12-20T16:02:03;8.90;1.00
19868;DHT22;10096;51.112;6.776;2023-12-20T16:04:31;8.60;1.00
19868;DHT22;10096;51.112;6.776;2023-12-20T16:06:57;8.60;1.00
19868;DHT22;10096;51.112;6.776;2023-12-20T16:09:26;8.60;1.00
19868;DHT22;10096;51.112;6.776;2023-12-20T16:11:57;8.60;1.00